sensor_id;sensor_type;location;lat;lon;timestamp;P1;durP1;ratioP1;P2;durP2;ratioP2
47153;SDS011;32907;41.412;2.164;2023-03-16T00:01:02;9.35;;;4.72;;
47153;SDS011;32907;41.412;2.164;2023-03-16T00:03:32;12.60;;;4.75;;
47153;SDS011;32907;41.412;2.164;2023-03-16T00:06:01;9.35;;;4.50;;
47153;SDS011;32907;41.412;2.164;2023-03-16T00:08:28;11.80;;;5.03;;
47153;SDS011;32907;41.412;2.164;2023-03-16T00:10:57;14.02;;;4.82;;
47153;SDS011;32907;41.412;2.164;2023-03-16T00:13:25;9.57;;;4.50;;
47153;SDS011;32907;41.412;2.164;2023-03-16T00:15:56;10.75;;;4.63;;
47153;SDS011;32907;41.412;2.164;2023-03-16T00:18:29;11.82;;;5.07;;
47153;SDS011;32907;41.412;2.164;2023-03-16T00:20:58;15.55;;;5.55;;
47153;SDS011;32907;41.412;2.164;2023-03-16T00:23:32;10.57;;;5.22;;
47153;SDS011;32907;41.412;2.164;2023-03-16T00:26:03;13.55;;;5.88;;
47153;SDS011;32907;41.412;2.164;2023-03-16T00:28:34;15.93;;;6.07;;
47153;SDS011;32907;41.412;2.164;2023-03-16T00:31:06;13.07;;;5.85;;
47153;SDS011;32907;41.412;2.164;2023-03-16T00:33:39;12.23;;;5.88;;
47153;SDS011;32907;41.412;2.164;2023-03-16T00:36:09;15.02;;;6.68;;
47153;SDS011;32907;41.412;2.164;2023-03-16T00:38:38;15.70;;;6.78;;
47153;SDS011;32907;41.412;2.164;2023-03-16T00:41:12;10.70;;;6.57;;
47153;SDS011;32907;41.412;2.164;2023-03-16T00:43:41;14.27;;;8.50;;
47153;SDS011;32907;41.412;2.164;2023-03-16T00:46:11;12.10;;;6.93;;
47153;SDS011;32907;41.412;2.164;2023-03-16T00:48:44;17.70;;;8.20;;
47153;SDS011;32907;41.412;2.164;2023-03-16T00:51:14;13.40;;;8.38;;
47153;SDS011;32907;41.412;2.164;2023-03-16T00:53:44;14.88;;;8.63;;
47153;SDS011;32907;41.412;2.164;2023-03-16T00:56:13;15.57;;;8.65;;
47153;SDS011;32907;41.412;2.164;2023-03-16T00:58:42;13.23;;;8.40;;
47153;SDS011;32907;41.412;2.164;2023-03-16T01:01:12;14.52;;;8.95;;
47153;SDS011;32907;41.412;2.164;2023-03-16T01:03:42;13.45;;;9.43;;
47153;SDS011;32907;41.412;2.164;2023-03-16T01:06:12;14.30;;;8.50;;
47153;SDS011;32907;41.412;2.164;2023-03-16T01:08:42;13.50;;;8.15;;
47153;SDS011;32907;41.412;2.164;2023-03-16T01:11:12;12.95;;;8.20;;
47153;SDS011;32907;41.412;2.164;2023-03-16T01:13:43;19.70;;;8.45;;
47153;SDS011;32907;41.412;2.164;2023-03-16T01:16:14;11.85;;;7.78;;
47153;SDS011;32907;41.412;2.164;2023-03-16T01:18:45;12.23;;;7.57;;
47153;SDS011;32907;41.412;2.164;2023-03-16T01:21:14;13.48;;;8.77;;
47153;SDS011;32907;41.412;2.164;2023-03-16T01:23:42;17.33;;;9.07;;
47153;SDS011;32907;41.412;2.164;2023-03-16T01:26:11;13.75;;;8.43;;
47153;SDS011;32907;41.412;2.164;2023-03-16T01:28:41;14.48;;;8.43;;
47153;SDS011;32907;41.412;2.164;2023-03-16T01:31:11;13.27;;;7.82;;
47153;SDS011;32907;41.412;2.164;2023-03-16T01:33:41;20.42;;;9.02;;
47153;SDS011;32907;41.412;2.164;2023-03-16T01:36:15;11.77;;;7.18;;
47153;SDS011;32907;41.412;2.164;2023-03-16T01:38:58;14.13;;;8.18;;
47153;SDS011;32907;41.412;2.164;2023-03-16T01:41:35;11.40;;;6.95;;
47153;SDS011;32907;41.412;2.164;2023-03-16T01:44:03;13.73;;;7.30;;
47153;SDS011;32907;41.412;2.164;2023-03-16T01:46:32;13.32;;;6.85;;
47153;SDS011;32907;41.412;2.164;2023-03-16T01:49:08;14.80;;;6.93;;
47153;SDS011;32907;41.412;2.164;2023-03-16T01:51:42;13.35;;;7.45;;
47153;SDS011;32907;41.412;2.164;2023-03-16T01:54:13;13.55;;;6.47;;
47153;SDS011;32907;41.412;2.164;2023-03-16T01:56:44;14.95;;;6.85;;
47153;SDS011;32907;41.412;2.164;2023-03-16T01:59:19;18.17;;;7.43;;
47153;SDS011;32907;41.412;2.164;2023-03-16T02:01:50;12.98;;;6.60;;
47153;SDS011;32907;41.412;2.164;2023-03-16T02:07:18;16.55;;;7.60;;
47153;SDS011;32907;41.412;2.164;2023-03-16T02:09:49;15.38;;;7.20;;
47153;SDS011;32907;41.412;2.164;2023-03-16T02:12:20;15.93;;;7.50;;
47153;SDS011;32907;41.412;2.164;2023-03-16T02:14:54;14.82;;;7.65;;
47153;SDS011;32907;41.412;2.164;2023-03-16T02:17:26;16.00;;;6.90;;
47153;SDS011;32907;41.412;2.164;2023-03-16T02:20:08;14.55;;;6.00;;
47153;SDS011;32907;41.412;2.164;2023-03-16T02:22:43;12.50;;;6.25;;
47153;SDS011;32907;41.412;2.164;2023-03-16T02:25:15;13.20;;;6.45;;
47153;SDS011;32907;41.412;2.164;2023-03-16T02:27:47;14.25;;;5.80;;
47153;SDS011;32907;41.412;2.164;2023-03-16T02:30:41;12.73;;;5.93;;
47153;SDS011;32907;41.412;2.164;2023-03-16T02:33:10;14.43;;;5.78;;
47153;SDS011;32907;41.412;2.164;2023-03-16T02:35:43;11.93;;;5.68;;
47153;SDS011;32907;41.412;2.164;2023-03-16T02:38:11;14.05;;;6.18;;
47153;SDS011;32907;41.412;2.164;2023-03-16T02:40:46;14.85;;;6.35;;
47153;SDS011;32907;41.412;2.164;2023-03-16T02:43:26;14.35;;;6.38;;
47153;SDS011;32907;41.412;2.164;2023-03-16T02:46:15;9.77;;;5.43;;
47153;SDS011;32907;41.412;2.164;2023-03-16T02:51:29;12.20;;;6.40;;
47153;SDS011;32907;41.412;2.164;2023-03-16T02:53:58;14.27;;;6.70;;
47153;SDS011;32907;41.412;2.164;2023-03-16T02:56:29;14.45;;;6.53;;
47153;SDS011;32907;41.412;2.164;2023-03-16T02:58:57;10.35;;;6.28;;
47153;SDS011;32907;41.412;2.164;2023-03-16T03:01:25;13.18;;;6.78;;
47153;SDS011;32907;41.412;2.164;2023-03-16T03:03:54;15.40;;;7.63;;
47153;SDS011;32907;41.412;2.164;2023-03-16T03:06:21;13.23;;;6.78;;
47153;SDS011;32907;41.412;2.164;2023-03-16T03:08:51;12.57;;;8.23;;
47153;SDS011;32907;41.412;2.164;2023-03-16T03:11:20;13.45;;;7.32;;
47153;SDS011;32907;41.412;2.164;2023-03-16T03:13:48;14.65;;;8.25;;
47153;SDS011;32907;41.412;2.164;2023-03-16T03:16:20;14.63;;;7.55;;
47153;SDS011;32907;41.412;2.164;2023-03-16T03:18:49;11.82;;;7.20;;
47153;SDS011;32907;41.412;2.164;2023-03-16T03:21:19;16.40;;;7.95;;
47153;SDS011;32907;41.412;2.164;2023-03-16T03:23:47;15.85;;;7.80;;
47153;SDS011;32907;41.412;2.164;2023-03-16T03:26:15;16.90;;;7.80;;
47153;SDS011;32907;41.412;2.164;2023-03-16T03:28:44;14.18;;;7.28;;
47153;SDS011;32907;41.412;2.164;2023-03-16T03:31:19;13.52;;;7.30;;
47153;SDS011;32907;41.412;2.164;2023-03-16T03:33:50;15.63;;;7.80;;
47153;SDS011;32907;41.412;2.164;2023-03-16T03:36:21;15.85;;;8.65;;
47153;SDS011;32907;41.412;2.164;2023-03-16T03:38:49;17.05;;;7.68;;
47153;SDS011;32907;41.412;2.164;2023-03-16T03:41:18;12.75;;;7.32;;
47153;SDS011;32907;41.412;2.164;2023-03-16T03:43:50;13.63;;;7.53;;
47153;SDS011;32907;41.412;2.164;2023-03-16T03:46:19;13.02;;;7.53;;
47153;SDS011;32907;41.412;2.164;2023-03-16T03:48:47;13.88;;;7.80;;
47153;SDS011;32907;41.412;2.164;2023-03-16T03:51:15;13.23;;;7.20;;
47153;SDS011;32907;41.412;2.164;2023-03-16T03:53:56;13.80;;;6.68;;
47153;SDS011;32907;41.412;2.164;2023-03-16T03:56:39;12.50;;;6.60;;
47153;SDS011;32907;41.412;2.164;2023-03-16T03:59:11;13.43;;;6.50;;
47153;SDS011;32907;41.412;2.164;2023-03-16T04:01:59;12.35;;;6.68;;
47153;SDS011;32907;41.412;2.164;2023-03-16T04:04:38;10.32;;;5.53;;
47153;SDS011;32907;41.412;2.164;2023-03-16T04:07:14;10.33;;;6.10;;
47153;SDS011;32907;41.412;2.164;2023-03-16T04:09:45;15.00;;;7.03;;
47153;SDS011;32907;41.412;2.164;2023-03-16T04:12:42;13.13;;;5.73;;
47153;SDS011;32907;41.412;2.164;2023-03-16T04:15:13;10.35;;;5.93;;
47153;SDS011;32907;41.412;2.164;2023-03-16T04:17:53;17.38;;;6.50;;
47153;SDS011;32907;41.412;2.164;2023-03-16T04:20:21;12.00;;;5.97;;
47153;SDS011;32907;41.412;2.164;2023-03-16T04:22:50;11.90;;;6.32;;
47153;SDS011;32907;41.412;2.164;2023-03-16T04:25:25;14.18;;;6.82;;
47153;SDS011;32907;41.412;2.164;2023-03-16T04:27:54;12.63;;;6.63;;
47153;SDS011;32907;41.412;2.164;2023-03-16T04:30:26;14.35;;;6.82;;
47153;SDS011;32907;41.412;2.164;2023-03-16T04:33:02;17.95;;;6.72;;
47153;SDS011;32907;41.412;2.164;2023-03-16T04:35:30;14.15;;;7.35;;
47153;SDS011;32907;41.412;2.164;2023-03-16T04:37:58;15.93;;;7.97;;
47153;SDS011;32907;41.412;2.164;2023-03-16T04:40:39;14.82;;;7.18;;
47153;SDS011;32907;41.412;2.164;2023-03-16T04:43:12;12.35;;;6.45;;
47153;SDS011;32907;41.412;2.164;2023-03-16T04:45:41;15.13;;;7.30;;
47153;SDS011;32907;41.412;2.164;2023-03-16T04:48:09;12.85;;;6.32;;
47153;SDS011;32907;41.412;2.164;2023-03-16T04:50:38;12.30;;;6.78;;
47153;SDS011;32907;41.412;2.164;2023-03-16T04:53:08;14.10;;;7.05;;
47153;SDS011;32907;41.412;2.164;2023-03-16T04:55:37;14.25;;;6.93;;
47153;SDS011;32907;41.412;2.164;2023-03-16T04:58:05;11.45;;;6.10;;
47153;SDS011;32907;41.412;2.164;2023-03-16T05:00:37;12.13;;;6.70;;
47153;SDS011;32907;41.412;2.164;2023-03-16T05:03:20;12.75;;;6.78;;
47153;SDS011;32907;41.412;2.164;2023-03-16T05:05:48;13.52;;;7.13;;
47153;SDS011;32907;41.412;2.164;2023-03-16T05:08:18;16.38;;;6.70;;
47153;SDS011;32907;41.412;2.164;2023-03-16T05:10:49;12.63;;;7.25;;
47153;SDS011;32907;41.412;2.164;2023-03-16T05:13:19;14.30;;;7.18;;
47153;SDS011;32907;41.412;2.164;2023-03-16T05:15:49;13.05;;;6.63;;
47153;SDS011;32907;41.412;2.164;2023-03-16T05:18:25;14.73;;;7.57;;
47153;SDS011;32907;41.412;2.164;2023-03-16T05:20:54;12.82;;;7.40;;
47153;SDS011;32907;41.412;2.164;2023-03-16T05:23:26;11.85;;;6.40;;
47153;SDS011;32907;41.412;2.164;2023-03-16T05:25:59;15.00;;;7.57;;
47153;SDS011;32907;41.412;2.164;2023-03-16T05:28:29;14.85;;;7.07;;
47153;SDS011;32907;41.412;2.164;2023-03-16T05:31:07;12.05;;;6.88;;
47153;SDS011;32907;41.412;2.164;2023-03-16T05:33:41;11.30;;;6.32;;
47153;SDS011;32907;41.412;2.164;2023-03-16T05:36:15;14.48;;;7.97;;
47153;SDS011;32907;41.412;2.164;2023-03-16T05:38:46;15.25;;;8.57;;
47153;SDS011;32907;41.412;2.164;2023-03-16T05:41:25;16.33;;;9.02;;
47153;SDS011;32907;41.412;2.164;2023-03-16T05:44:07;12.80;;;7.93;;
47153;SDS011;32907;41.412;2.164;2023-03-16T05:46:52;11.48;;;6.75;;
47153;SDS011;32907;41.412;2.164;2023-03-16T05:49:20;10.70;;;5.85;;
47153;SDS011;32907;41.412;2.164;2023-03-16T05:51:49;10.43;;;5.70;;
47153;SDS011;32907;41.412;2.164;2023-03-16T05:54:17;10.80;;;5.43;;
47153;SDS011;32907;41.412;2.164;2023-03-16T05:56:45;12.45;;;5.65;;
47153;SDS011;32907;41.412;2.164;2023-03-16T05:59:15;11.02;;;5.05;;
47153;SDS011;32907;41.412;2.164;2023-03-16T06:01:50;11.93;;;4.47;;
47153;SDS011;32907;41.412;2.164;2023-03-16T06:04:20;16.42;;;6.28;;
47153;SDS011;32907;41.412;2.164;2023-03-16T06:06:48;10.25;;;5.50;;
47153;SDS011;32907;41.412;2.164;2023-03-16T06:09:20;12.85;;;6.50;;
47153;SDS011;32907;41.412;2.164;2023-03-16T06:11:48;12.52;;;5.90;;
47153;SDS011;32907;41.412;2.164;2023-03-16T06:14:17;13.63;;;6.13;;
47153;SDS011;32907;41.412;2.164;2023-03-16T06:16:46;17.58;;;6.18;;
47153;SDS011;32907;41.412;2.164;2023-03-16T06:19:15;9.75;;;5.15;;
47153;SDS011;32907;41.412;2.164;2023-03-16T06:21:45;12.40;;;5.72;;
47153;SDS011;32907;41.412;2.164;2023-03-16T06:24:18;11.70;;;5.68;;
47153;SDS011;32907;41.412;2.164;2023-03-16T06:26:45;32.40;;;11.10;;
47153;SDS011;32907;41.412;2.164;2023-03-16T06:29:16;33.65;;;11.40;;
47153;SDS011;32907;41.412;2.164;2023-03-16T06:31:44;25.20;;;9.18;;
47153;SDS011;32907;41.412;2.164;2023-03-16T06:34:12;20.05;;;8.25;;
47153;SDS011;32907;41.412;2.164;2023-03-16T06:36:40;22.10;;;8.30;;
47153;SDS011;32907;41.412;2.164;2023-03-16T06:39:11;15.23;;;7.15;;
47153;SDS011;32907;41.412;2.164;2023-03-16T06:41:46;14.63;;;7.32;;
47153;SDS011;32907;41.412;2.164;2023-03-16T06:44:17;15.85;;;7.35;;
47153;SDS011;32907;41.412;2.164;2023-03-16T06:47:08;16.67;;;7.10;;
47153;SDS011;32907;41.412;2.164;2023-03-16T06:49:37;11.02;;;6.32;;
47153;SDS011;32907;41.412;2.164;2023-03-16T06:52:13;11.88;;;6.18;;
47153;SDS011;32907;41.412;2.164;2023-03-16T06:54:41;16.67;;;7.22;;
47153;SDS011;32907;41.412;2.164;2023-03-16T06:57:11;12.50;;;7.32;;
47153;SDS011;32907;41.412;2.164;2023-03-16T07:02:49;14.73;;;6.68;;
47153;SDS011;32907;41.412;2.164;2023-03-16T07:05:19;12.95;;;6.57;;
47153;SDS011;32907;41.412;2.164;2023-03-16T07:07:51;14.82;;;6.90;;
47153;SDS011;32907;41.412;2.164;2023-03-16T07:10:20;16.13;;;6.80;;
47153;SDS011;32907;41.412;2.164;2023-03-16T07:12:49;10.38;;;3.97;;
47153;SDS011;32907;41.412;2.164;2023-03-16T07:15:17;9.88;;;4.30;;
47153;SDS011;32907;41.412;2.164;2023-03-16T07:17:46;14.32;;;6.40;;
47153;SDS011;32907;41.412;2.164;2023-03-16T07:20:14;15.57;;;6.47;;
47153;SDS011;32907;41.412;2.164;2023-03-16T07:22:42;13.98;;;6.72;;
47153;SDS011;32907;41.412;2.164;2023-03-16T07:25:12;14.57;;;6.82;;
47153;SDS011;32907;41.412;2.164;2023-03-16T07:27:46;16.42;;;7.07;;
47153;SDS011;32907;41.412;2.164;2023-03-16T07:30:20;12.80;;;7.00;;
47153;SDS011;32907;41.412;2.164;2023-03-16T07:32:48;12.55;;;7.25;;
47153;SDS011;32907;41.412;2.164;2023-03-16T07:35:18;17.05;;;8.23;;
47153;SDS011;32907;41.412;2.164;2023-03-16T07:37:46;19.55;;;7.78;;
47153;SDS011;32907;41.412;2.164;2023-03-16T07:40:14;22.02;;;8.48;;
47153;SDS011;32907;41.412;2.164;2023-03-16T07:42:43;17.92;;;8.10;;
47153;SDS011;32907;41.412;2.164;2023-03-16T07:45:16;18.90;;;8.60;;
47153;SDS011;32907;41.412;2.164;2023-03-16T07:47:45;17.13;;;8.05;;
47153;SDS011;32907;41.412;2.164;2023-03-16T07:50:23;17.05;;;7.68;;
47153;SDS011;32907;41.412;2.164;2023-03-16T07:52:52;18.35;;;7.90;;
47153;SDS011;32907;41.412;2.164;2023-03-16T07:55:20;24.48;;;9.15;;
47153;SDS011;32907;41.412;2.164;2023-03-16T07:57:50;15.27;;;7.80;;
47153;SDS011;32907;41.412;2.164;2023-03-16T08:00:26;18.92;;;8.13;;
47153;SDS011;32907;41.412;2.164;2023-03-16T08:02:56;17.80;;;8.25;;
47153;SDS011;32907;41.412;2.164;2023-03-16T08:05:24;15.57;;;8.60;;
47153;SDS011;32907;41.412;2.164;2023-03-16T08:07:58;16.80;;;7.70;;
47153;SDS011;32907;41.412;2.164;2023-03-16T08:10:30;16.85;;;7.38;;
47153;SDS011;32907;41.412;2.164;2023-03-16T08:13:05;15.57;;;8.35;;
47153;SDS011;32907;41.412;2.164;2023-03-16T08:15:35;16.65;;;8.20;;
47153;SDS011;32907;41.412;2.164;2023-03-16T08:18:11;19.00;;;8.53;;
47153;SDS011;32907;41.412;2.164;2023-03-16T08:20:40;16.38;;;8.20;;
47153;SDS011;32907;41.412;2.164;2023-03-16T08:23:08;19.80;;;8.90;;
47153;SDS011;32907;41.412;2.164;2023-03-16T08:25:40;15.50;;;8.00;;
47153;SDS011;32907;41.412;2.164;2023-03-16T08:28:13;23.17;;;8.90;;
47153;SDS011;32907;41.412;2.164;2023-03-16T08:30:43;17.45;;;8.45;;
47153;SDS011;32907;41.412;2.164;2023-03-16T08:33:40;17.85;;;8.43;;
47153;SDS011;32907;41.412;2.164;2023-03-16T08:36:10;19.83;;;7.18;;
47153;SDS011;32907;41.412;2.164;2023-03-16T08:38:41;19.75;;;8.93;;
47153;SDS011;32907;41.412;2.164;2023-03-16T08:41:28;16.58;;;8.10;;
47153;SDS011;32907;41.412;2.164;2023-03-16T08:44:01;16.60;;;7.97;;
47153;SDS011;32907;41.412;2.164;2023-03-16T08:46:29;20.25;;;8.63;;
47153;SDS011;32907;41.412;2.164;2023-03-16T08:48:58;17.25;;;8.25;;
47153;SDS011;32907;41.412;2.164;2023-03-16T08:51:28;18.00;;;9.48;;
47153;SDS011;32907;41.412;2.164;2023-03-16T08:53:55;17.13;;;8.65;;
47153;SDS011;32907;41.412;2.164;2023-03-16T08:56:24;19.80;;;8.75;;
47153;SDS011;32907;41.412;2.164;2023-03-16T08:58:56;17.02;;;8.77;;
47153;SDS011;32907;41.412;2.164;2023-03-16T09:01:24;16.08;;;8.63;;
47153;SDS011;32907;41.412;2.164;2023-03-16T09:03:55;19.50;;;9.45;;
47153;SDS011;32907;41.412;2.164;2023-03-16T09:06:24;21.08;;;9.02;;
47153;SDS011;32907;41.412;2.164;2023-03-16T09:08:52;20.73;;;9.57;;
47153;SDS011;32907;41.412;2.164;2023-03-16T09:11:22;19.35;;;9.73;;
47153;SDS011;32907;41.412;2.164;2023-03-16T09:13:53;18.67;;;9.57;;
47153;SDS011;32907;41.412;2.164;2023-03-16T09:16:22;17.83;;;9.52;;
47153;SDS011;32907;41.412;2.164;2023-03-16T09:18:52;21.00;;;9.88;;
47153;SDS011;32907;41.412;2.164;2023-03-16T09:21:22;17.83;;;8.90;;
47153;SDS011;32907;41.412;2.164;2023-03-16T09:23:50;21.30;;;10.27;;
47153;SDS011;32907;41.412;2.164;2023-03-16T09:26:18;21.77;;;10.05;;
47153;SDS011;32907;41.412;2.164;2023-03-16T09:28:47;23.30;;;9.63;;
47153;SDS011;32907;41.412;2.164;2023-03-16T09:31:17;24.90;;;11.68;;
47153;SDS011;32907;41.412;2.164;2023-03-16T09:33:46;21.83;;;11.30;;
47153;SDS011;32907;41.412;2.164;2023-03-16T09:36:14;21.00;;;10.90;;
47153;SDS011;32907;41.412;2.164;2023-03-16T09:38:42;24.63;;;10.88;;
47153;SDS011;32907;41.412;2.164;2023-03-16T09:44:02;19.58;;;11.00;;
47153;SDS011;32907;41.412;2.164;2023-03-16T09:46:45;22.63;;;11.27;;
47153;SDS011;32907;41.412;2.164;2023-03-16T09:49:16;18.00;;;10.10;;
47153;SDS011;32907;41.412;2.164;2023-03-16T09:51:49;16.80;;;8.35;;
47153;SDS011;32907;41.412;2.164;2023-03-16T09:57:10;13.30;;;7.18;;
47153;SDS011;32907;41.412;2.164;2023-03-16T09:59:50;8.35;;;5.05;;
47153;SDS011;32907;41.412;2.164;2023-03-16T10:05:22;10.77;;;4.97;;
47153;SDS011;32907;41.412;2.164;2023-03-16T10:11:10;11.55;;;4.05;;
47153;SDS011;32907;41.412;2.164;2023-03-16T10:13:57;9.23;;;3.65;;
47153;SDS011;32907;41.412;2.164;2023-03-16T10:16:42;7.72;;;3.17;;
47153;SDS011;32907;41.412;2.164;2023-03-16T10:22:15;13.02;;;3.53;;
47153;SDS011;32907;41.412;2.164;2023-03-16T10:24:53;7.25;;;3.40;;
47153;SDS011;32907;41.412;2.164;2023-03-16T10:27:32;8.63;;;3.60;;
47153;SDS011;32907;41.412;2.164;2023-03-16T10:32:46;7.97;;;3.17;;
47153;SDS011;32907;41.412;2.164;2023-03-16T10:38:00;9.45;;;2.92;;
47153;SDS011;32907;41.412;2.164;2023-03-16T10:40:33;10.43;;;3.35;;
47153;SDS011;32907;41.412;2.164;2023-03-16T10:43:05;8.18;;;2.97;;
47153;SDS011;32907;41.412;2.164;2023-03-16T10:45:42;8.68;;;3.35;;
47153;SDS011;32907;41.412;2.164;2023-03-16T10:48:16;11.43;;;3.50;;
47153;SDS011;32907;41.412;2.164;2023-03-16T10:50:49;10.45;;;3.38;;
47153;SDS011;32907;41.412;2.164;2023-03-16T10:53:22;10.70;;;4.35;;
47153;SDS011;32907;41.412;2.164;2023-03-16T10:56:00;9.73;;;4.53;;
47153;SDS011;32907;41.412;2.164;2023-03-16T10:58:37;9.32;;;4.70;;
47153;SDS011;32907;41.412;2.164;2023-03-16T11:01:09;10.57;;;5.90;;
47153;SDS011;32907;41.412;2.164;2023-03-16T11:03:40;9.70;;;5.28;;
47153;SDS011;32907;41.412;2.164;2023-03-16T11:06:15;10.77;;;5.28;;
47153;SDS011;32907;41.412;2.164;2023-03-16T11:08:46;9.57;;;5.10;;
47153;SDS011;32907;41.412;2.164;2023-03-16T11:11:16;11.13;;;4.60;;
47153;SDS011;32907;41.412;2.164;2023-03-16T11:13:47;9.95;;;3.78;;
47153;SDS011;32907;41.412;2.164;2023-03-16T11:22:05;10.75;;;4.20;;
47153;SDS011;32907;41.412;2.164;2023-03-16T11:30:14;8.82;;;3.17;;
47153;SDS011;32907;41.412;2.164;2023-03-16T11:32:51;11.27;;;3.40;;
47153;SDS011;32907;41.412;2.164;2023-03-16T11:38:37;7.63;;;3.60;;
47153;SDS011;32907;41.412;2.164;2023-03-16T11:41:18;10.63;;;3.33;;
47153;SDS011;32907;41.412;2.164;2023-03-16T11:43:55;7.80;;;2.92;;
47153;SDS011;32907;41.412;2.164;2023-03-16T11:46:41;6.47;;;2.67;;
47153;SDS011;32907;41.412;2.164;2023-03-16T11:49:33;8.63;;;3.40;;
47153;SDS011;32907;41.412;2.164;2023-03-16T12:13:00;19.40;;;7.78;;
47153;SDS011;32907;41.412;2.164;2023-03-16T12:15:58;12.77;;;4.97;;
47153;SDS011;32907;41.412;2.164;2023-03-16T12:18:35;13.18;;;4.65;;
47153;SDS011;32907;41.412;2.164;2023-03-16T12:21:18;7.78;;;3.90;;
47153;SDS011;32907;41.412;2.164;2023-03-16T12:23:52;9.98;;;3.88;;
47153;SDS011;32907;41.412;2.164;2023-03-16T12:26:26;12.60;;;4.75;;
47153;SDS011;32907;41.412;2.164;2023-03-16T12:29:02;14.38;;;5.68;;
47153;SDS011;32907;41.412;2.164;2023-03-16T12:34:31;14.07;;;7.60;;
47153;SDS011;32907;41.412;2.164;2023-03-16T12:45:45;14.52;;;9.95;;
47153;SDS011;32907;41.412;2.164;2023-03-16T12:48:28;13.85;;;8.73;;
47153;SDS011;32907;41.412;2.164;2023-03-16T12:51:00;13.30;;;6.65;;
47153;SDS011;32907;41.412;2.164;2023-03-16T12:56:06;11.82;;;5.95;;
47153;SDS011;32907;41.412;2.164;2023-03-16T13:01:39;21.02;;;16.08;;
47153;SDS011;32907;41.412;2.164;2023-03-16T13:06:45;20.75;;;14.95;;
47153;SDS011;32907;41.412;2.164;2023-03-16T13:09:18;15.23;;;11.15;;
47153;SDS011;32907;41.412;2.164;2023-03-16T13:11:52;15.45;;;7.80;;
47153;SDS011;32907;41.412;2.164;2023-03-16T13:14:34;9.23;;;6.40;;
47153;SDS011;32907;41.412;2.164;2023-03-16T13:19:56;12.68;;;7.05;;
47153;SDS011;32907;41.412;2.164;2023-03-16T13:23:07;9.63;;;4.80;;
47153;SDS011;32907;41.412;2.164;2023-03-16T13:28:30;7.40;;;4.00;;
47153;SDS011;32907;41.412;2.164;2023-03-16T13:31:02;10.18;;;5.18;;
47153;SDS011;32907;41.412;2.164;2023-03-16T13:33:32;9.98;;;5.15;;
47153;SDS011;32907;41.412;2.164;2023-03-16T13:36:03;11.10;;;5.30;;
47153;SDS011;32907;41.412;2.164;2023-03-16T13:38:32;9.30;;;4.50;;
47153;SDS011;32907;41.412;2.164;2023-03-16T13:41:01;8.57;;;3.85;;
47153;SDS011;32907;41.412;2.164;2023-03-16T13:43:41;7.40;;;3.40;;
47153;SDS011;32907;41.412;2.164;2023-03-16T13:46:18;7.68;;;3.20;;
47153;SDS011;32907;41.412;2.164;2023-03-16T13:48:50;8.32;;;2.83;;
47153;SDS011;32907;41.412;2.164;2023-03-16T13:51:21;7.97;;;4.35;;
47153;SDS011;32907;41.412;2.164;2023-03-16T13:53:50;10.02;;;5.57;;
47153;SDS011;32907;41.412;2.164;2023-03-16T13:56:24;12.45;;;5.97;;
47153;SDS011;32907;41.412;2.164;2023-03-16T13:58:55;12.52;;;6.75;;
47153;SDS011;32907;41.412;2.164;2023-03-16T14:01:26;9.25;;;5.75;;
47153;SDS011;32907;41.412;2.164;2023-03-16T14:03:58;9.43;;;5.30;;
47153;SDS011;32907;41.412;2.164;2023-03-16T14:06:35;10.88;;;4.47;;
47153;SDS011;32907;41.412;2.164;2023-03-16T14:09:03;7.70;;;4.22;;
47153;SDS011;32907;41.412;2.164;2023-03-16T14:11:34;7.63;;;4.00;;
47153;SDS011;32907;41.412;2.164;2023-03-16T14:14:11;8.15;;;4.93;;
47153;SDS011;32907;41.412;2.164;2023-03-16T14:16:43;8.98;;;5.28;;
47153;SDS011;32907;41.412;2.164;2023-03-16T14:19:21;10.55;;;6.20;;
47153;SDS011;32907;41.412;2.164;2023-03-16T14:22:00;12.73;;;4.93;;
47153;SDS011;32907;41.412;2.164;2023-03-16T14:24:34;10.68;;;4.40;;
47153;SDS011;32907;41.412;2.164;2023-03-16T14:27:08;10.35;;;3.67;;
47153;SDS011;32907;41.412;2.164;2023-03-16T14:29:49;6.45;;;3.33;;
47153;SDS011;32907;41.412;2.164;2023-03-16T14:32:21;11.55;;;4.05;;
47153;SDS011;32907;41.412;2.164;2023-03-16T14:37:43;8.30;;;3.10;;
47153;SDS011;32907;41.412;2.164;2023-03-16T14:40:28;9.27;;;4.00;;
47153;SDS011;32907;41.412;2.164;2023-03-16T14:42:59;10.02;;;3.03;;
47153;SDS011;32907;41.412;2.164;2023-03-16T14:45:31;11.13;;;3.42;;
47153;SDS011;32907;41.412;2.164;2023-03-16T14:48:02;9.93;;;4.38;;
47153;SDS011;32907;41.412;2.164;2023-03-16T14:50:33;10.55;;;4.68;;
47153;SDS011;32907;41.412;2.164;2023-03-16T14:53:01;9.52;;;3.95;;
47153;SDS011;32907;41.412;2.164;2023-03-16T14:55:30;9.35;;;3.97;;
47153;SDS011;32907;41.412;2.164;2023-03-16T14:57:58;10.25;;;4.18;;
47153;SDS011;32907;41.412;2.164;2023-03-16T15:00:27;8.68;;;4.32;;
47153;SDS011;32907;41.412;2.164;2023-03-16T15:03:03;9.52;;;5.57;;
47153;SDS011;32907;41.412;2.164;2023-03-16T15:05:35;10.90;;;4.97;;
47153;SDS011;32907;41.412;2.164;2023-03-16T15:08:06;12.65;;;4.70;;
47153;SDS011;32907;41.412;2.164;2023-03-16T15:10:44;9.82;;;4.40;;
47153;SDS011;32907;41.412;2.164;2023-03-16T15:13:15;7.35;;;4.03;;
47153;SDS011;32907;41.412;2.164;2023-03-16T15:16:05;10.18;;;3.92;;
47153;SDS011;32907;41.412;2.164;2023-03-16T15:18:36;9.32;;;4.05;;
47153;SDS011;32907;41.412;2.164;2023-03-16T15:21:13;11.32;;;3.67;;
47153;SDS011;32907;41.412;2.164;2023-03-16T15:23:44;8.95;;;3.75;;
47153;SDS011;32907;41.412;2.164;2023-03-16T15:26:14;9.77;;;3.38;;
47153;SDS011;32907;41.412;2.164;2023-03-16T15:28:45;7.47;;;2.88;;
47153;SDS011;32907;41.412;2.164;2023-03-16T15:31:14;7.53;;;2.70;;
47153;SDS011;32907;41.412;2.164;2023-03-16T15:33:42;6.55;;;2.83;;
47153;SDS011;32907;41.412;2.164;2023-03-16T15:36:15;8.65;;;3.30;;
47153;SDS011;32907;41.412;2.164;2023-03-16T15:38:46;8.30;;;2.92;;
47153;SDS011;32907;41.412;2.164;2023-03-16T15:41:18;6.00;;;2.75;;
47153;SDS011;32907;41.412;2.164;2023-03-16T15:43:46;8.07;;;3.28;;
47153;SDS011;32907;41.412;2.164;2023-03-16T15:46:14;8.23;;;2.53;;
47153;SDS011;32907;41.412;2.164;2023-03-16T15:48:43;6.18;;;2.55;;
47153;SDS011;32907;41.412;2.164;2023-03-16T15:53:50;7.22;;;2.45;;
47153;SDS011;32907;41.412;2.164;2023-03-16T15:56:23;5.07;;;2.15;;
47153;SDS011;32907;41.412;2.164;2023-03-16T15:59:00;9.35;;;2.63;;
47153;SDS011;32907;41.412;2.164;2023-03-16T16:01:31;8.02;;;2.38;;
47153;SDS011;32907;41.412;2.164;2023-03-16T16:04:08;6.97;;;2.25;;
47153;SDS011;32907;41.412;2.164;2023-03-16T16:06:42;8.60;;;3.20;;
47153;SDS011;32907;41.412;2.164;2023-03-16T16:09:12;11.05;;;3.60;;
47153;SDS011;32907;41.412;2.164;2023-03-16T16:11:43;9.80;;;3.53;;
47153;SDS011;32907;41.412;2.164;2023-03-16T16:14:14;9.43;;;3.90;;
47153;SDS011;32907;41.412;2.164;2023-03-16T16:16:44;9.75;;;4.32;;
47153;SDS011;32907;41.412;2.164;2023-03-16T16:19:13;12.02;;;4.78;;
47153;SDS011;32907;41.412;2.164;2023-03-16T16:21:42;11.55;;;4.70;;
47153;SDS011;32907;41.412;2.164;2023-03-16T16:24:11;12.85;;;5.43;;
47153;SDS011;32907;41.412;2.164;2023-03-16T16:26:41;10.98;;;3.90;;
47153;SDS011;32907;41.412;2.164;2023-03-16T16:29:26;9.57;;;3.80;;
47153;SDS011;32907;41.412;2.164;2023-03-16T16:31:59;6.07;;;2.42;;
47153;SDS011;32907;41.412;2.164;2023-03-16T16:34:28;7.80;;;2.83;;
47153;SDS011;32907;41.412;2.164;2023-03-16T16:36:56;6.90;;;2.97;;
47153;SDS011;32907;41.412;2.164;2023-03-16T16:39:24;6.43;;;2.38;;
47153;SDS011;32907;41.412;2.164;2023-03-16T16:41:52;5.90;;;2.67;;